sensor_id;sensor_type;location;lat;lon;timestamp;pressure;altitude;pressure_sealevel;temperature
15453;BMP280;7827;53.594;9.938;2023-08-06T00:00:30;27047.50;;;-135.29
15453;BMP280;7827;53.594;9.938;2023-08-06T00:02:58;26892.88;;;-135.29
15453;BMP280;7827;53.594;9.938;2023-08-06T00:05:27;27333.53;;;-135.29
15453;BMP280;7827;53.594;9.938;2023-08-06T00:07:57;27379.94;;;-135.29
15453;BMP280;7827;53.594;9.938;2023-08-06T00:10:25;27426.31;;;-135.29
15453;BMP280;7827;53.594;9.938;2023-08-06T00:12:54;27615.78;;;-135.29
15453;BMP280;7827;53.594;9.938;2023-08-06T00:15:22;27536.50;;;-135.29
15453;BMP280;7827;53.594;9.938;2023-08-06T00:17:50;27559.72;;;-135.29
15453;BMP280;7827;53.594;9.938;2023-08-06T00:20:19;27588.69;;;-135.29
15453;BMP280;7827;53.594;9.938;2023-08-06T00:22:47;27712.44;;;-135.29
15453;BMP280;7827;53.594;9.938;2023-08-06T00:25:17;27760.75;;;-135.29
15453;BMP280;7827;53.594;9.938;2023-08-06T00:27:46;27791.69;;;-135.29
15453;BMP280;7827;53.594;9.938;2023-08-06T00:30:15;27770.41;;;-135.29
15453;BMP280;7827;53.594;9.938;2023-08-06T00:32:43;28000.47;;;-135.29
15453;BMP280;7827;53.594;9.938;2023-08-06T00:35:12;28128.09;;;-135.29
15453;BMP280;7827;53.594;9.938;2023-08-06T00:37:41;28106.81;;;-135.29
15453;BMP280;7827;53.594;9.938;2023-08-06T00:40:10;28218.97;;;-135.29
15453;BMP280;7827;53.594;9.938;2023-08-06T00:42:39;27940.56;;;-135.29
15453;BMP280;7827;53.594;9.938;2023-08-06T00:45:09;27994.69;;;-135.29
15453;BMP280;7827;53.594;9.938;2023-08-06T00:47:37;27890.28;;;-135.29
15453;BMP280;7827;53.594;9.938;2023-08-06T00:50:08;27743.34;;;-135.29
15453;BMP280;7827;53.594;9.938;2023-08-06T00:52:37;27917.34;;;-135.29
15453;BMP280;7827;53.594;9.938;2023-08-06T00:55:06;27950.22;;;-135.29
15453;BMP280;7827;53.594;9.938;2023-08-06T00:57:35;27787.81;;;-135.29
15453;BMP280;7827;53.594;9.938;2023-08-06T01:00:07;27869.03;;;-135.29
15453;BMP280;7827;53.594;9.938;2023-08-06T01:02:36;27861.28;;;-135.29
15453;BMP280;7827;53.594;9.938;2023-08-06T01:05:06;27840.03;;;-135.29
15453;BMP280;7827;53.594;9.938;2023-08-06T01:07:50;27650.56;;;-135.29
15453;BMP280;7827;53.594;9.938;2023-08-06T01:10:31;27940.56;;;-135.29
15453;BMP280;7827;53.594;9.938;2023-08-06T01:13:16;27936.69;;;-135.29
15453;BMP280;7827;53.594;9.938;2023-08-06T01:15:54;27797.50;;;-135.29
15453;BMP280;7827;53.594;9.938;2023-08-06T01:18:24;27718.22;;;-135.29
15453;BMP280;7827;53.594;9.938;2023-08-06T01:20:54;27776.22;;;-135.29
15453;BMP280;7827;53.594;9.938;2023-08-06T01:23:23;27774.28;;;-135.29
15453;BMP280;7827;53.594;9.938;2023-08-06T01:26:12;27770.41;;;-135.29
15453;BMP280;7827;53.594;9.938;2023-08-06T01:29:03;27544.25;;;-135.29
15453;BMP280;7827;53.594;9.938;2023-08-06T01:31:37;27745.28;;;-135.29
15453;BMP280;7827;53.594;9.938;2023-08-06T01:34:13;27812.94;;;-135.29
15453;BMP280;7827;53.594;9.938;2023-08-06T01:36:43;27640.91;;;-135.29
15453;BMP280;7827;53.594;9.938;2023-08-06T01:39:12;27901.88;;;-135.29
15453;BMP280;7827;53.594;9.938;2023-08-06T01:41:40;27756.88;;;-135.29
15453;BMP280;7827;53.594;9.938;2023-08-06T01:44:09;27859.34;;;-135.29
15453;BMP280;7827;53.594;9.938;2023-08-06T01:46:37;27770.41;;;-135.29
15453;BMP280;7827;53.594;9.938;2023-08-06T01:49:07;27782.03;;;-135.29
15453;BMP280;7827;53.594;9.938;2023-08-06T01:51:35;27739.50;;;-135.29
15453;BMP280;7827;53.594;9.938;2023-08-06T01:54:05;27940.56;;;-135.29
15453;BMP280;7827;53.594;9.938;2023-08-06T01:56:33;27948.28;;;-135.29
15453;BMP280;7827;53.594;9.938;2023-08-06T01:59:01;27990.81;;;-135.29
15453;BMP280;7827;53.594;9.938;2023-08-06T02:01:31;28027.56;;;-135.29
15453;BMP280;7827;53.594;9.938;2023-08-06T02:03:59;27882.56;;;-135.29
15453;BMP280;7827;53.594;9.938;2023-08-06T02:06:28;27725.97;;;-135.29
15453;BMP280;7827;53.594;9.938;2023-08-06T02:08:57;27965.69;;;-135.29
15453;BMP280;7827;53.594;9.938;2023-08-06T02:11:27;27971.47;;;-135.29
15453;BMP280;7827;53.594;9.938;2023-08-06T02:13:55;27952.16;;;-135.29
15453;BMP280;7827;53.594;9.938;2023-08-06T02:16:24;28130.03;;;-135.29
15453;BMP280;7827;53.594;9.938;2023-08-06T02:18:52;27778.16;;;-135.29
15453;BMP280;7827;53.594;9.938;2023-08-06T02:21:26;27751.09;;;-135.29
15453;BMP280;7827;53.594;9.938;2023-08-06T02:23:55;27785.88;;;-135.29
15453;BMP280;7827;53.594;9.938;2023-08-06T02:26:23;28095.22;;;-135.29
15453;BMP280;7827;53.594;9.938;2023-08-06T02:28:53;27940.56;;;-135.29
15453;BMP280;7827;53.594;9.938;2023-08-06T02:31:21;28056.56;;;-135.29
15453;BMP280;7827;53.594;9.938;2023-08-06T02:33:50;28106.81;;;-135.29
15453;BMP280;7827;53.594;9.938;2023-08-06T02:36:19;28333.03;;;-135.29
15453;BMP280;7827;53.594;9.938;2023-08-06T02:38:47;28493.53;;;-135.29
15453;BMP280;7827;53.594;9.938;2023-08-06T02:41:15;28549.63;;;-135.29
15453;BMP280;7827;53.594;9.938;2023-08-06T02:43:44;28679.19;;;-135.29
15453;BMP280;7827;53.594;9.938;2023-08-06T02:46:13;28567.03;;;-135.29
15453;BMP280;7827;53.594;9.938;2023-08-06T02:48:42;28509.00;;;-135.29
15453;BMP280;7827;53.594;9.938;2023-08-06T02:51:10;28555.41;;;-135.29
15453;BMP280;7827;53.594;9.938;2023-08-06T02:53:38;28686.91;;;-135.29
15453;BMP280;7827;53.594;9.938;2023-08-06T02:56:10;28512.88;;;-135.29
15453;BMP280;7827;53.594;9.938;2023-08-06T02:59:11;28462.59;;;-135.29
15453;BMP280;7827;53.594;9.938;2023-08-06T03:01:54;28491.59;;;-135.29
15453;BMP280;7827;53.594;9.938;2023-08-06T03:04:30;28497.41;;;-135.29
15453;BMP280;7827;53.594;9.938;2023-08-06T03:06:58;28559.28;;;-135.29
15453;BMP280;7827;53.594;9.938;2023-08-06T03:09:35;28615.38;;;-135.29
15453;BMP280;7827;53.594;9.938;2023-08-06T03:12:05;28793.28;;;-135.29
15453;BMP280;7827;53.594;9.938;2023-08-06T03:14:33;28605.69;;;-135.29
15453;BMP280;7827;53.594;9.938;2023-08-06T03:17:06;28744.94;;;-135.29
15453;BMP280;7827;53.594;9.938;2023-08-06T03:19:36;28304.03;;;-135.29
15453;BMP280;7827;53.594;9.938;2023-08-06T03:22:05;28505.16;;;-135.29
15453;BMP280;7827;53.594;9.938;2023-08-06T03:24:36;28667.59;;;-135.29
15453;BMP280;7827;53.594;9.938;2023-08-06T03:27:05;28524.47;;;-135.29
15453;BMP280;7827;53.594;9.938;2023-08-06T03:29:36;28319.50;;;-135.29
15453;BMP280;7827;53.594;9.938;2023-08-06T03:32:07;28246.03;;;-135.29
15453;BMP280;7827;53.594;9.938;2023-08-06T03:34:35;28520.63;;;-135.29
15453;BMP280;7827;53.594;9.938;2023-08-06T03:37:04;28679.19;;;-135.29
15453;BMP280;7827;53.594;9.938;2023-08-06T03:39:33;28470.34;;;-135.29
15453;BMP280;7827;53.594;9.938;2023-08-06T03:42:02;28743.00;;;-135.29
15453;BMP280;7827;53.594;9.938;2023-08-06T03:44:31;28512.88;;;-135.29
15453;BMP280;7827;53.594;9.938;2023-08-06T03:46:59;28497.41;;;-135.29
15453;BMP280;7827;53.594;9.938;2023-08-06T03:49:29;28655.97;;;-135.29
15453;BMP280;7827;53.594;9.938;2023-08-06T03:51:57;28597.97;;;-135.29
15453;BMP280;7827;53.594;9.938;2023-08-06T03:54:26;28282.78;;;-135.29
15453;BMP280;7827;53.594;9.938;2023-08-06T03:56:55;28675.31;;;-135.29
15453;BMP280;7827;53.594;9.938;2023-08-06T03:59:24;28400.72;;;-135.29
15453;BMP280;7827;53.594;9.938;2023-08-06T04:01:52;28640.50;;;-135.29
15453;BMP280;7827;53.594;9.938;2023-08-06T04:04:21;28623.09;;;-135.29
15453;BMP280;7827;53.594;9.938;2023-08-06T04:06:51;28632.78;;;-135.29
15453;BMP280;7827;53.594;9.938;2023-08-06T04:09:22;28710.13;;;-135.29
15453;BMP280;7827;53.594;9.938;2023-08-06T04:11:50;28717.88;;;-135.29
15453;BMP280;7827;53.594;9.938;2023-08-06T04:14:19;28781.69;;;-135.29
15453;BMP280;7827;53.594;9.938;2023-08-06T04:16:47;28857.09;;;-135.29
15453;BMP280;7827;53.594;9.938;2023-08-06T04:19:15;28845.50;;;-135.29
15453;BMP280;7827;53.594;9.938;2023-08-06T04:21:44;29089.19;;;-135.29
15453;BMP280;7827;53.594;9.938;2023-08-06T04:24:14;28975.09;;;-135.29
15453;BMP280;7827;53.594;9.938;2023-08-06T04:26:42;29042.78;;;-135.29
15453;BMP280;7827;53.594;9.938;2023-08-06T04:29:11;28953.81;;;-135.29
15453;BMP280;7827;53.594;9.938;2023-08-06T04:31:40;29017.63;;;-135.29
15453;BMP280;7827;53.594;9.938;2023-08-06T04:34:08;28789.41;;;-135.29
15453;BMP280;7827;53.594;9.938;2023-08-06T04:36:38;28992.50;;;-135.29
15453;BMP280;7827;53.594;9.938;2023-08-06T04:39:08;28860.97;;;-135.29
15453;BMP280;7827;53.594;9.938;2023-08-06T04:41:38;28926.72;;;-135.29
15453;BMP280;7827;53.594;9.938;2023-08-06T04:44:06;29007.97;;;-135.29
15453;BMP280;7827;53.594;9.938;2023-08-06T04:46:35;28882.25;;;-135.29
15453;BMP280;7827;53.594;9.938;2023-08-06T04:49:03;29035.03;;;-135.29
15453;BMP280;7827;53.594;9.938;2023-08-06T04:51:32;28938.34;;;-135.29
15453;BMP280;7827;53.594;9.938;2023-08-06T04:54:00;28980.88;;;-135.29
15453;BMP280;7827;53.594;9.938;2023-08-06T04:56:29;29108.53;;;-135.29
15453;BMP280;7827;53.594;9.938;2023-08-06T04:59:00;28961.53;;;-135.29
15453;BMP280;7827;53.594;9.938;2023-08-06T05:01:29;28903.53;;;-135.29
15453;BMP280;7827;53.594;9.938;2023-08-06T05:03:57;28932.53;;;-135.29
15453;BMP280;7827;53.594;9.938;2023-08-06T05:06:25;28735.28;;;-135.29
15453;BMP280;7827;53.594;9.938;2023-08-06T05:08:54;28884.19;;;-135.29
15453;BMP280;7827;53.594;9.938;2023-08-06T05:11:22;28795.22;;;-135.29
15453;BMP280;7827;53.594;9.938;2023-08-06T05:13:51;28876.44;;;-135.29
15453;BMP280;7827;53.594;9.938;2023-08-06T05:16:20;29017.63;;;-135.29
15453;BMP280;7827;53.594;9.938;2023-08-06T05:18:49;29104.66;;;-135.29
15453;BMP280;7827;53.594;9.938;2023-08-06T05:21:17;28930.59;;;-135.29
15453;BMP280;7827;53.594;9.938;2023-08-06T05:23:46;28980.88;;;-135.29
15453;BMP280;7827;53.594;9.938;2023-08-06T05:26:14;28965.41;;;-135.29
15453;BMP280;7827;53.594;9.938;2023-08-06T05:28:45;28874.50;;;-135.29
15453;BMP280;7827;53.594;9.938;2023-08-06T05:31:13;28988.63;;;-135.29
15453;BMP280;7827;53.594;9.938;2023-08-06T05:33:43;29164.63;;;-135.29
15453;BMP280;7827;53.594;9.938;2023-08-06T05:36:12;29007.97;;;-135.29
15453;BMP280;7827;53.594;9.938;2023-08-06T05:38:40;29154.97;;;-135.29
15453;BMP280;7827;53.594;9.938;2023-08-06T05:41:08;28787.47;;;-135.29
15453;BMP280;7827;53.594;9.938;2023-08-06T05:43:37;29089.19;;;-135.29
15453;BMP280;7827;53.594;9.938;2023-08-06T05:46:05;28721.72;;;-135.29
15453;BMP280;7827;53.594;9.938;2023-08-06T05:48:33;28903.53;;;-135.29
15453;BMP280;7827;53.594;9.938;2023-08-06T05:51:03;28570.91;;;-135.29
15453;BMP280;7827;53.594;9.938;2023-08-06T05:53:32;28799.09;;;-135.29
15453;BMP280;7827;53.594;9.938;2023-08-06T05:56:00;28810.69;;;-135.29
15453;BMP280;7827;53.594;9.938;2023-08-06T05:58:28;28729.47;;;-135.29
15453;BMP280;7827;53.594;9.938;2023-08-06T06:00:57;28715.94;;;-135.29
15453;BMP280;7827;53.594;9.938;2023-08-06T06:03:26;28802.97;;;-135.29
15453;BMP280;7827;53.594;9.938;2023-08-06T06:05:55;28609.56;;;-135.29
15453;BMP280;7827;53.594;9.938;2023-08-06T06:08:24;28932.53;;;-135.29
15453;BMP280;7827;53.594;9.938;2023-08-06T06:10:53;28648.25;;;-135.29
15453;BMP280;7827;53.594;9.938;2023-08-06T06:13:21;28793.28;;;-135.29
15453;BMP280;7827;53.594;9.938;2023-08-06T06:15:49;28661.78;;;-135.29
15453;BMP280;7827;53.594;9.938;2023-08-06T06:18:18;28824.22;;;-135.29
15453;BMP280;7827;53.594;9.938;2023-08-06T06:20:46;28785.56;;;-135.29
15453;BMP280;7827;53.594;9.938;2023-08-06T06:23:14;28640.50;;;-135.29
15453;BMP280;7827;53.594;9.938;2023-08-06T06:25:48;28365.91;;;-135.29
15453;BMP280;7827;53.594;9.938;2023-08-06T06:28:18;28557.34;;;-135.29
15453;BMP280;7827;53.594;9.938;2023-08-06T06:30:48;28524.47;;;-135.29
15453;BMP280;7827;53.594;9.938;2023-08-06T06:33:17;28555.41;;;-135.29
15453;BMP280;7827;53.594;9.938;2023-08-06T06:35:45;28543.81;;;-135.29
15453;BMP280;7827;53.594;9.938;2023-08-06T06:38:13;28679.19;;;-135.29
15453;BMP280;7827;53.594;9.938;2023-08-06T06:40:43;28449.06;;;-135.29
15453;BMP280;7827;53.594;9.938;2023-08-06T06:43:11;28439.41;;;-135.29
15453;BMP280;7827;53.594;9.938;2023-08-06T06:45:40;28284.72;;;-135.29
15453;BMP280;7827;53.594;9.938;2023-08-06T06:48:08;28423.94;;;-135.29
15453;BMP280;7827;53.594;9.938;2023-08-06T06:50:36;28230.56;;;-135.29
15453;BMP280;7827;53.594;9.938;2023-08-06T06:53:06;28041.09;;;-135.29
15453;BMP280;7827;53.594;9.938;2023-08-06T06:55:34;28273.09;;;-135.29
15453;BMP280;7827;53.594;9.938;2023-08-06T06:58:04;28226.69;;;-135.29
15453;BMP280;7827;53.594;9.938;2023-08-06T07:00:32;28159.03;;;-135.29
15453;BMP280;7827;53.594;9.938;2023-08-06T07:03:00;28137.75;;;-135.29
15453;BMP280;7827;53.594;9.938;2023-08-06T07:05:29;28178.38;;;-135.29
15453;BMP280;7827;53.594;9.938;2023-08-06T07:07:57;27994.69;;;-135.29
15453;BMP280;7827;53.594;9.938;2023-08-06T07:10:26;28037.22;;;-135.29
15453;BMP280;7827;53.594;9.938;2023-08-06T07:12:54;28021.75;;;-135.29
15453;BMP280;7827;53.594;9.938;2023-08-06T07:15:24;27888.34;;;-135.29
15453;BMP280;7827;53.594;9.938;2023-08-06T07:17:52;27888.34;;;-135.29
15453;BMP280;7827;53.594;9.938;2023-08-06T07:20:21;27979.22;;;-135.29
15453;BMP280;7827;53.594;9.938;2023-08-06T07:22:49;27722.09;;;-135.29
15453;BMP280;7827;53.594;9.938;2023-08-06T07:25:18;27901.88;;;-135.29
15453;BMP280;7827;53.594;9.938;2023-08-06T07:27:46;28131.97;;;-135.29
15453;BMP280;7827;53.594;9.938;2023-08-06T07:30:15;28195.75;;;-135.29
15453;BMP280;7827;53.594;9.938;2023-08-06T07:32:45;28031.41;;;-135.29
15453;BMP280;7827;53.594;9.938;2023-08-06T07:35:14;27592.56;;;-135.29
15453;BMP280;7827;53.594;9.938;2023-08-06T07:37:42;27596.44;;;-135.29
15453;BMP280;7827;53.594;9.938;2023-08-06T07:40:11;27550.03;;;-135.29
15453;BMP280;7827;53.594;9.938;2023-08-06T07:42:40;27720.16;;;-135.29
15453;BMP280;7827;53.594;9.938;2023-08-06T07:45:09;27461.13;;;-135.29
15453;BMP280;7827;53.594;9.938;2023-08-06T07:47:38;27312.28;;;-135.29
15453;BMP280;7827;53.594;9.938;2023-08-06T07:50:08;27395.41;;;-135.29
15453;BMP280;7827;53.594;9.938;2023-08-06T07:52:37;27202.13;;;-135.29
15453;BMP280;7827;53.594;9.938;2023-08-06T07:55:06;27304.56;;;-135.29
15453;BMP280;7827;53.594;9.938;2023-08-06T07:57:34;27198.25;;;-135.29
15453;BMP280;7827;53.594;9.938;2023-08-06T08:00:04;26918.00;;;-135.29
15453;BMP280;7827;53.594;9.938;2023-08-06T08:02:38;27453.38;;;-135.29
15453;BMP280;7827;53.594;9.938;2023-08-06T08:05:08;27066.81;;;-135.29
15453;BMP280;7827;53.594;9.938;2023-08-06T08:07:37;26970.19;;;-135.29
15453;BMP280;7827;53.594;9.938;2023-08-06T08:10:07;27269.75;;;-135.29
15453;BMP280;7827;53.594;9.938;2023-08-06T08:12:35;27006.91;;;-135.29
15453;BMP280;7827;53.594;9.938;2023-08-06T08:15:05;26846.50;;;-135.29
15453;BMP280;7827;53.594;9.938;2023-08-06T08:17:33;26701.56;;;-135.29
15453;BMP280;7827;53.594;9.938;2023-08-06T08:20:03;26456.16;;;-135.29
15453;BMP280;7827;53.594;9.938;2023-08-06T08:22:33;26531.50;;;-135.29
15453;BMP280;7827;53.594;9.938;2023-08-06T08:25:01;26502.53;;;-135.29
15453;BMP280;7827;53.594;9.938;2023-08-06T08:27:30;26603.00;;;-135.29
15453;BMP280;7827;53.594;9.938;2023-08-06T08:29:59;26494.78;;;-135.29
15453;BMP280;7827;53.594;9.938;2023-08-06T08:32:27;26286.09;;;-135.29
15453;BMP280;7827;53.594;9.938;2023-08-06T08:34:55;26230.06;;;-135.29
15453;BMP280;7827;53.594;9.938;2023-08-06T08:37:24;26259.06;;;-135.29
15453;BMP280;7827;53.594;9.938;2023-08-06T08:39:54;26403.97;;;-135.29
15453;BMP280;7827;53.594;9.938;2023-08-06T08:42:22;26322.81;;;-135.29
15453;BMP280;7827;53.594;9.938;2023-08-06T08:44:53;26599.13;;;-135.29
15453;BMP280;7827;53.594;9.938;2023-08-06T08:47:24;26726.69;;;-135.29
15453;BMP280;7827;53.594;9.938;2023-08-06T08:49:54;27041.69;;;-135.29
15453;BMP280;7827;53.594;9.938;2023-08-06T08:52:25;27030.09;;;-135.29
15453;BMP280;7827;53.594;9.938;2023-08-06T08:54:56;26947.00;;;-135.29
15453;BMP280;7827;53.594;9.938;2023-08-06T08:57:26;26800.13;;;-135.29
15453;BMP280;7827;53.594;9.938;2023-08-06T08:59:54;26390.44;;;-135.29
15453;BMP280;7827;53.594;9.938;2023-08-06T09:02:25;26848.44;;;-135.29
15453;BMP280;7827;53.594;9.938;2023-08-06T09:04:58;26711.22;;;-135.29
15453;BMP280;7827;53.594;9.938;2023-08-06T09:07:35;26635.84;;;-135.29
15453;BMP280;7827;53.594;9.938;2023-08-06T09:10:10;26514.13;;;-135.29
15453;BMP280;7827;53.594;9.938;2023-08-06T09:12:39;27136.41;;;-135.29
15453;BMP280;7827;53.594;9.938;2023-08-06T09:15:08;26879.34;;;-135.29
15453;BMP280;7827;53.594;9.938;2023-08-06T09:17:37;26881.28;;;-135.29
15453;BMP280;7827;53.594;9.938;2023-08-06T09:20:13;26429.09;;;-135.29
15453;BMP280;7827;53.594;9.938;2023-08-06T09:22:42;26346.00;;;-135.29
15453;BMP280;7827;53.594;9.938;2023-08-06T09:25:21;26456.16;;;-135.29
15453;BMP280;7827;53.594;9.938;2023-08-06T09:27:51;26624.25;;;-135.29
15453;BMP280;7827;53.594;9.938;2023-08-06T09:30:31;26788.53;;;-135.29
15453;BMP280;7827;53.594;9.938;2023-08-06T09:32:59;26587.53;;;-135.29
15453;BMP280;7827;53.594;9.938;2023-08-06T09:35:29;26759.53;;;-135.29
15453;BMP280;7827;53.594;9.938;2023-08-06T09:38:06;26463.88;;;-135.29
15453;BMP280;7827;53.594;9.938;2023-08-06T09:40:40;26346.00;;;-135.29
15453;BMP280;7827;53.594;9.938;2023-08-06T09:43:08;26135.41;;;-135.29
15453;BMP280;7827;53.594;9.938;2023-08-06T09:45:38;26568.22;;;-135.29
15453;BMP280;7827;53.594;9.938;2023-08-06T09:48:08;26516.03;;;-135.29
15453;BMP280;7827;53.594;9.938;2023-08-06T09:50:37;26668.69;;;-135.29
15453;BMP280;7827;53.594;9.938;2023-08-06T09:53:08;26744.06;;;-135.29
15453;BMP280;7827;53.594;9.938;2023-08-06T09:55:38;26794.31;;;-135.29
15453;BMP280;7827;53.594;9.938;2023-08-06T09:58:07;26684.16;;;-135.29
15453;BMP280;7827;53.594;9.938;2023-08-06T10:00:36;26614.59;;;-135.29
15453;BMP280;7827;53.594;9.938;2023-08-06T10:03:07;26666.78;;;-135.29
15453;BMP280;7827;53.594;9.938;2023-08-06T10:05:38;26773.06;;;-135.29
15453;BMP280;7827;53.594;9.938;2023-08-06T10:08:07;26823.31;;;-135.29
15453;BMP280;7827;53.594;9.938;2023-08-06T10:10:36;26968.25;;;-135.29
15453;BMP280;7827;53.594;9.938;2023-08-06T10:13:07;27231.09;;;-135.29
15453;BMP280;7827;53.594;9.938;2023-08-06T10:15:37;27196.31;;;-135.29
15453;BMP280;7827;53.594;9.938;2023-08-06T10:18:07;27115.13;;;-135.29
15453;BMP280;7827;53.594;9.938;2023-08-06T10:20:36;26960.53;;;-135.29
15453;BMP280;7827;53.594;9.938;2023-08-06T10:23:06;27101.59;;;-135.29
15453;BMP280;7827;53.594;9.938;2023-08-06T10:25:40;26819.44;;;-135.29
15453;BMP280;7827;53.594;9.938;2023-08-06T10:28:11;26945.06;;;-135.29
15453;BMP280;7827;53.594;9.938;2023-08-06T10:30:45;26877.41;;;-135.29
15453;BMP280;7827;53.594;9.938;2023-08-06T10:33:14;26767.25;;;-135.29
15453;BMP280;7827;53.594;9.938;2023-08-06T10:35:44;26854.22;;;-135.29
15453;BMP280;7827;53.594;9.938;2023-08-06T10:38:18;26803.97;;;-135.29
15453;BMP280;7827;53.594;9.938;2023-08-06T10:41:00;26989.50;;;-135.29
15453;BMP280;7827;53.594;9.938;2023-08-06T10:43:32;26898.69;;;-135.29
15453;BMP280;7827;53.594;9.938;2023-08-06T10:46:02;27090.00;;;-135.29
15453;BMP280;7827;53.594;9.938;2023-08-06T10:48:35;27072.63;;;-135.29
15453;BMP280;7827;53.594;9.938;2023-08-06T10:51:07;27064.88;;;-135.29
15453;BMP280;7827;53.594;9.938;2023-08-06T10:53:36;27039.75;;;-135.29
15453;BMP280;7827;53.594;9.938;2023-08-06T10:56:12;27306.50;;;-135.29
15453;BMP280;7827;53.594;9.938;2023-08-06T10:58:43;27430.19;;;-135.29
15453;BMP280;7827;53.594;9.938;2023-08-06T11:01:12;27391.53;;;-135.29
15453;BMP280;7827;53.594;9.938;2023-08-06T11:03:42;27637.03;;;-135.29
15453;BMP280;7827;53.594;9.938;2023-08-06T11:06:17;27281.34;;;-135.29
15453;BMP280;7827;53.594;9.938;2023-08-06T11:08:49;27511.38;;;-135.29
15453;BMP280;7827;53.594;9.938;2023-08-06T11:11:18;27463.06;;;-135.29
15453;BMP280;7827;53.594;9.938;2023-08-06T11:13:50;27666.03;;;-135.29
15453;BMP280;7827;53.594;9.938;2023-08-06T11:16:22;27401.19;;;-135.29
15453;BMP280;7827;53.594;9.938;2023-08-06T11:18:51;26921.88;;;-135.29
15453;BMP280;7827;53.594;9.938;2023-08-06T11:21:22;27043.63;;;-135.29
15453;BMP280;7827;53.594;9.938;2023-08-06T11:23:52;27072.63;;;-135.29
15453;BMP280;7827;53.594;9.938;2023-08-06T11:26:22;26912.19;;;-135.29
15453;BMP280;7827;53.594;9.938;2023-08-06T11:28:52;26997.25;;;-135.29
15453;BMP280;7827;53.594;9.938;2023-08-06T11:31:21;26931.53;;;-135.29
15453;BMP280;7827;53.594;9.938;2023-08-06T11:33:50;27221.44;;;-135.29
15453;BMP280;7827;53.594;9.938;2023-08-06T11:36:29;27186.66;;;-135.29
15453;BMP280;7827;53.594;9.938;2023-08-06T11:38:58;26906.41;;;-135.29
15453;BMP280;7827;53.594;9.938;2023-08-06T11:41:28;27066.81;;;-135.29
15453;BMP280;7827;53.594;9.938;2023-08-06T11:43:59;26728.59;;;-135.29
15453;BMP280;7827;53.594;9.938;2023-08-06T11:46:27;26444.53;;;-135.29
15453;BMP280;7827;53.594;9.938;2023-08-06T11:48:58;26481.25;;;-135.29
15453;BMP280;7827;53.594;9.938;2023-08-06T11:51:27;26543.09;;;-135.29
15453;BMP280;7827;53.594;9.938;2023-08-06T11:53:57;26591.41;;;-135.29
15453;BMP280;7827;53.594;9.938;2023-08-06T11:56:27;26651.31;;;-135.29
15453;BMP280;7827;53.594;9.938;2023-08-06T11:58:57;26471.59;;;-135.29
15453;BMP280;7827;53.594;9.938;2023-08-06T12:01:26;26481.25;;;-135.29
15453;BMP280;7827;53.594;9.938;2023-08-06T12:03:59;26517.97;;;-135.29
15453;BMP280;7827;53.594;9.938;2023-08-06T12:06:27;26347.94;;;-135.29
15453;BMP280;7827;53.594;9.938;2023-08-06T12:08:56;26309.28;;;-135.29
15453;BMP280;7827;53.594;9.938;2023-08-06T12:11:24;26197.22;;;-135.29
15453;BMP280;7827;53.594;9.938;2023-08-06T12:13:54;25855.25;;;-135.29
15453;BMP280;7827;53.594;9.938;2023-08-06T12:16:25;26069.72;;;-135.29
15453;BMP280;7827;53.594;9.938;2023-08-06T12:18:53;25917.09;;;-135.29
15453;BMP280;7827;53.594;9.938;2023-08-06T12:21:21;25474.72;;;-135.29
15453;BMP280;7827;53.594;9.938;2023-08-06T12:23:50;25372.34;;;-135.29
15453;BMP280;7827;53.594;9.938;2023-08-06T12:26:18;25426.41;;;-135.29
15453;BMP280;7827;53.594;9.938;2023-08-06T12:28:46;25629.25;;;-135.29
15453;BMP280;7827;53.594;9.938;2023-08-06T12:31:16;25745.16;;;-135.29
15453;BMP280;7827;53.594;9.938;2023-08-06T12:33:46;25723.91;;;-135.29
15453;BMP280;7827;53.594;9.938;2023-08-06T12:36:14;25569.34;;;-135.29
15453;BMP280;7827;53.594;9.938;2023-08-06T12:38:43;25231.34;;;-135.29
15453;BMP280;7827;53.594;9.938;2023-08-06T12:41:11;24930.03;;;-135.29
15453;BMP280;7827;53.594;9.938;2023-08-06T12:43:39;24906.88;;;-135.29
15453;BMP280;7827;53.594;9.938;2023-08-06T12:46:08;24736.94;;;-135.29
15453;BMP280;7827;53.594;9.938;2023-08-06T12:48:37;24093.94;;;-135.29
15453;BMP280;7827;53.594;9.938;2023-08-06T12:51:07;24547.69;;;-135.29
15453;BMP280;7827;53.594;9.938;2023-08-06T12:53:35;24254.19;;;-135.29
15453;BMP280;7827;53.594;9.938;2023-08-06T12:56:04;24462.72;;;-135.29
15453;BMP280;7827;53.594;9.938;2023-08-06T12:58:32;24568.94;;;-135.29
15453;BMP280;7827;53.594;9.938;2023-08-06T13:01:00;24093.94;;;-135.29
15453;BMP280;7827;53.594;9.938;2023-08-06T13:03:29;23524.47;;;-135.29
15453;BMP280;7827;53.594;9.938;2023-08-06T13:05:59;23454.97;;;-135.29
15453;BMP280;7827;53.594;9.938;2023-08-06T13:08:29;23346.88;;;-135.29
15453;BMP280;7827;53.594;9.938;2023-08-06T13:10:57;23198.28;;;-135.29
15453;BMP280;7827;53.594;9.938;2023-08-06T13:13:26;22912.66;;;-135.29
15453;BMP280;7827;53.594;9.938;2023-08-06T13:15:54;22773.69;;;-135.29
15453;BMP280;7827;53.594;9.938;2023-08-06T13:18:22;22881.78;;;-135.29
15453;BMP280;7827;53.594;9.938;2023-08-06T13:20:53;23294.78;;;-135.29
15453;BMP280;7827;53.594;9.938;2023-08-06T13:23:22;23153.88;;;-135.29
15453;BMP280;7827;53.594;9.938;2023-08-06T13:25:51;23362.31;;;-135.29
15453;BMP280;7827;53.594;9.938;2023-08-06T13:28:20;23694.34;;;-135.29
15453;BMP280;7827;53.594;9.938;2023-08-06T13:30:48;23553.41;;;-135.29
15453;BMP280;7827;53.594;9.938;2023-08-06T13:33:16;23344.97;;;-135.29
15453;BMP280;7827;53.594;9.938;2023-08-06T13:35:45;23377.78;;;-135.29
15453;BMP280;7827;53.594;9.938;2023-08-06T13:38:13;22557.59;;;-135.29
15453;BMP280;7827;53.594;9.938;2023-08-06T13:40:41;22304.81;;;-135.29
15453;BMP280;7827;53.594;9.938;2023-08-06T13:43:12;22175.56;;;-135.29
15453;BMP280;7827;53.594;9.938;2023-08-06T13:45:42;22596.16;;;-135.29
15453;BMP280;7827;53.594;9.938;2023-08-06T13:48:11;22713.88;;;-135.29
15453;BMP280;7827;53.594;9.938;2023-08-06T13:50:39;22659.84;;;-135.29
15453;BMP280;7827;53.594;9.938;2023-08-06T13:53:08;22439.88;;;-135.29
15453;BMP280;7827;53.594;9.938;2023-08-06T13:55:36;22586.53;;;-135.29
15453;BMP280;7827;53.594;9.938;2023-08-06T13:58:04;22627.03;;;-135.29
15453;BMP280;7827;53.594;9.938;2023-08-06T14:00:35;22621.25;;;-135.29
15453;BMP280;7827;53.594;9.938;2023-08-06T14:03:03;22364.63;;;-135.29
15453;BMP280;7827;53.594;9.938;2023-08-06T14:05:32;22200.63;;;-135.29
15453;BMP280;7827;53.594;9.938;2023-08-06T14:08:00;22104.16;;;-135.29
15453;BMP280;7827;53.594;9.938;2023-08-06T14:10:29;22769.84;;;-135.29